Time;durP1;ratioP1;P1;durP2;ratioP2;P2;SDS_P1;SDS_P2;PMS_P1;PMS_P2;Temp;Humidity;BMP_temperature;BMP_pressure;BME280_temperature;BME280_humidity;BME280_pressure;Samples;Min_cycle;Max_cycle;Signal;HPM_P1;HPM_P2
2021/06/17 00:01:40;;;;;;;16.95;9.15;;;24.80;52.90;;;;;;6235678;28;82756;-65
2021/06/17 00:04:41;;;;;;;14.77;9.10;;;24.70;52.90;;;;;;6229674;27;82661;-66
2021/06/17 00:07:41;;;;;;;16.70;9.48;;;24.80;52.90;;;;;;6239203;27;80610;-66
2021/06/17 00:10:42;;;;;;;14.30;9.27;;;24.80;52.90;;;;;;6237637;28;80973;-66
2021/06/17 00:13:42;;;;;;;12.27;9.55;;;24.80;53.00;;;;;;6241064;27;80813;-66
2021/06/17 00:16:43;;;;;;;15.63;10.05;;;24.80;53.00;;;;;;6235815;27;81579;-65
2021/06/17 00:19:43;;;;;;;15.15;8.98;;;24.80;53.10;;;;;;6231767;27;83153;-65
2021/06/17 00:22:44;;;;;;;17.23;9.07;;;24.80;53.10;;;;;;6234723;27;83019;-64
2021/06/17 00:25:44;;;;;;;11.95;8.48;;;24.70;53.00;;;;;;6234654;28;81009;-66
2021/06/17 00:28:45;;;;;;;15.18;9.27;;;24.80;53.00;;;;;;6231175;27;80929;-65
2021/06/17 00:31:45;;;;;;;13.68;9.02;;;24.70;53.30;;;;;;6238454;28;80828;-65
2021/06/17 00:34:46;;;;;;;15.27;8.80;;;24.80;52.90;;;;;;6244177;27;81454;-65
2021/06/17 00:37:46;;;;;;;15.65;9.20;;;24.80;52.90;;;;;;6241947;27;80350;-65
2021/06/17 00:40:47;;;;;;;12.68;8.60;;;24.80;52.80;;;;;;6231782;28;81154;-65
2021/06/17 00:43:48;;;;;;;11.13;8.05;;;24.80;52.90;;;;;;6236586;27;86505;-64
2021/06/17 00:46:48;;;;;;;12.88;8.90;;;24.80;52.10;;;;;;6233820;27;80984;-64
2021/06/17 00:49:48;;;;;;;13.07;7.47;;;24.80;52.50;;;;;;6235155;27;80293;-65
2021/06/17 00:52:49;;;;;;;11.63;8.57;;;24.80;52.40;;;;;;6235020;27;80626;-66
2021/06/17 00:55:50;;;;;;;14.43;9.10;;;24.70;52.70;;;;;;6233410;27;80624;-66
2021/06/17 00:58:50;;;;;;;12.68;8.18;;;24.70;52.60;;;;;;6232534;28;80580;-67
2021/06/17 01:01:51;;;;;;;12.00;8.05;;;24.70;52.70;;;;;;6235098;27;80535;-66
2021/06/17 01:04:51;;;;;;;13.65;8.35;;;24.70;52.70;;;;;;6240277;27;80304;-66
2021/06/17 01:07:52;;;;;;;11.10;8.60;;;24.70;53.30;;;;;;6234603;28;80827;-67
2021/06/17 01:10:52;;;;;;;12.55;8.65;;;24.70;53.20;;;;;;6233671;27;80533;-66
2021/06/17 01:13:53;;;;;;;12.73;8.55;;;24.70;53.30;;;;;;6233352;27;80364;-66
2021/06/17 01:16:53;;;;;;;10.25;7.68;;;24.70;52.70;;;;;;6233419;27;81213;-65
2021/06/17 01:19:54;;;;;;;13.05;8.73;;;24.70;52.60;;;;;;6236523;27;80698;-65
2021/06/17 01:22:54;;;;;;;12.82;8.23;;;24.70;52.60;;;;;;6233505;27;80544;-65
2021/06/17 01:25:56;;;;;;;17.00;9.15;;;24.70;52.70;;;;;;6224380;28;84316;-64
2021/06/17 01:28:56;;;;;;;13.80;8.25;;;24.70;52.70;;;;;;6234438;28;80395;-65
2021/06/17 01:31:57;;;;;;;13.75;9.07;;;24.70;52.90;;;;;;6232679;27;81067;-65
2021/06/17 01:34:57;;;;;;;13.18;8.52;;;24.70;52.80;;;;;;6234904;27;80435;-66
2021/06/17 01:37:58;;;;;;;15.23;8.85;;;24.70;53.00;;;;;;6226207;28;82472;-66
2021/06/17 01:40:58;;;;;;;16.35;9.60;;;24.70;52.60;;;;;;6239941;27;80322;-65
2021/06/17 01:43:59;;;;;;;15.45;8.75;;;24.70;52.80;;;;;;6232649;28;80493;-65
2021/06/17 01:46:59;;;;;;;17.58;8.68;;;24.70;52.80;;;;;;6241808;27;81669;-65
2021/06/17 01:50:00;;;;;;;12.70;9.32;;;24.70;53.10;;;;;;6234570;27;80863;-65
2021/06/17 01:53:00;;;;;;;11.77;8.75;;;24.70;52.80;;;;;;6233502;27;81961;-66
2021/06/17 01:56:01;;;;;;;16.52;9.50;;;24.70;52.70;;;;;;6235251;27;80540;-66
2021/06/17 01:59:01;;;;;;;12.30;9.07;;;24.70;52.70;;;;;;6235002;28;80494;-66
2021/06/17 02:02:02;;;;;;;15.75;8.90;;;24.70;52.70;;;;;;6234258;27;80609;-66
2021/06/17 02:05:02;;;;;;;12.48;8.90;;;24.70;52.90;;;;;;6232232;27;80541;-66
2021/06/17 02:08:03;;;;;;;11.82;8.45;;;24.70;52.40;;;;;;6236131;28;80738;-66
2021/06/17 02:11:04;;;;;;;14.90;8.90;;;24.70;52.50;;;;;;6233341;27;80330;-66
2021/06/17 02:14:04;;;;;;;12.43;8.95;;;24.70;52.40;;;;;;6233806;28;80816;-66
2021/06/17 02:17:04;;;;;;;14.85;8.95;;;24.70;52.40;;;;;;6232787;27;80388;-66
2021/06/17 02:20:05;;;;;;;14.20;8.80;;;24.70;52.50;;;;;;6236729;28;81457;-65
2021/06/17 02:23:05;;;;;;;15.40;8.75;;;24.70;52.60;;;;;;6234151;27;80125;-66
2021/06/17 02:26:06;;;;;;;13.85;8.40;;;24.70;52.40;;;;;;6234276;28;80553;-66
2021/06/17 02:29:06;;;;;;;14.05;8.73;;;24.60;52.60;;;;;;6233321;27;80137;-65
2021/06/17 02:32:07;;;;;;;15.25;9.77;;;24.60;52.50;;;;;;6233152;27;80744;-66
2021/06/17 02:35:07;;;;;;;15.98;9.30;;;24.60;52.40;;;;;;6242737;27;80652;-65
2021/06/17 02:38:08;;;;;;;12.65;8.50;;;24.60;52.40;;;;;;6233729;27;81050;-65
2021/06/17 02:41:08;;;;;;;13.65;9.25;;;24.60;52.50;;;;;;6233065;27;80525;-65
2021/06/17 02:44:09;;;;;;;18.58;9.52;;;24.50;52.50;;;;;;6228245;27;81717;-65
2021/06/17 02:47:10;;;;;;;17.25;8.52;;;24.50;52.50;;;;;;6231032;27;80855;-65
2021/06/17 02:50:10;;;;;;;12.48;8.90;;;24.50;52.50;;;;;;6233398;28;80539;-64
2021/06/17 02:53:11;;;;;;;13.93;9.35;;;24.50;52.50;;;;;;6233180;28;80514;-65
2021/06/17 02:56:11;;;;;;;13.13;8.88;;;24.50;52.60;;;;;;6233264;27;80344;-64
2021/06/17 02:59:12;;;;;;;15.20;9.68;;;24.50;52.60;;;;;;6230502;28;81121;-65
2021/06/17 03:02:12;;;;;;;18.40;9.55;;;24.50;52.60;;;;;;6232495;27;80527;-64
2021/06/17 03:05:13;;;;;;;15.23;9.82;;;24.50;52.70;;;;;;6229977;28;80662;-65
2021/06/17 03:08:13;;;;;;;16.13;9.40;;;24.40;52.70;;;;;;6232968;27;81080;-65
2021/06/17 03:11:14;;;;;;;14.93;9.63;;;24.40;52.70;;;;;;6236936;27;81513;-65
2021/06/17 03:14:14;;;;;;;17.15;8.95;;;24.50;52.60;;;;;;6232030;27;80834;-65
2021/06/17 03:17:15;;;;;;;12.30;8.57;;;24.50;52.60;;;;;;6229794;27;80461;-65
2021/06/17 03:20:15;;;;;;;14.95;8.60;;;24.50;52.40;;;;;;6229974;27;80233;-65
2021/06/17 03:23:16;;;;;;;11.60;8.35;;;24.50;52.60;;;;;;6236492;27;80804;-65
2021/06/17 03:26:16;;;;;;;14.15;9.95;;;24.50;52.40;;;;;;6227886;27;80080;-65
2021/06/17 03:29:17;;;;;;;16.63;10.88;;;24.50;52.70;;;;;;6228278;27;80785;-65
2021/06/17 03:32:18;;;;;;;14.43;10.00;;;24.50;52.80;;;;;;6227888;27;84283;-65
2021/06/17 03:35:18;;;;;;;14.40;8.88;;;24.50;52.90;;;;;;6225075;27;85899;-66
2021/06/17 03:38:19;;;;;;;17.20;10.25;;;24.50;53.00;;;;;;6229358;28;83073;-65
2021/06/17 03:41:19;;;;;;;15.60;9.52;;;24.50;53.10;;;;;;6226457;27;83001;-65
2021/06/17 03:44:20;;;;;;;12.68;9.27;;;24.50;53.00;;;;;;6231515;27;83328;-67
2021/06/17 03:47:20;;;;;;;17.63;10.45;;;24.50;53.40;;;;;;6230080;27;80677;-66
2021/06/17 03:50:21;;;;;;;14.00;9.02;;;24.50;53.40;;;;;;6208635;28;83305;-65
2021/06/17 03:53:22;;;;;;;15.73;8.98;;;24.50;54.00;;;;;;6230384;27;83572;-66
2021/06/17 03:56:22;;;;;;;14.65;8.55;;;24.50;53.80;;;;;;6231004;28;80478;-66
2021/06/17 03:59:23;;;;;;;18.35;10.30;;;24.50;53.60;;;;;;6230701;27;81757;-66
2021/06/17 04:02:25;;;;;;;14.20;10.38;;;24.50;53.70;;;;;;6227267;28;82931;-65
2021/06/17 04:05:25;;;;;;;12.00;8.93;;;24.50;54.00;;;;;;6232302;27;83071;-65
2021/06/17 04:08:26;;;;;;;15.45;9.57;;;24.60;54.20;;;;;;6236719;28;81787;-67
2021/06/17 04:11:26;;;;;;;14.95;9.90;;;24.60;54.10;;;;;;6233704;27;80334;-68
2021/06/17 04:14:27;;;;;;;14.02;9.25;;;24.60;54.40;;;;;;6235876;27;81451;-66
2021/06/17 04:17:27;;;;;;;12.95;8.75;;;24.60;53.90;;;;;;6231954;27;80982;-67
2021/06/17 04:20:28;;;;;;;17.00;9.10;;;24.60;53.90;;;;;;6235807;27;85263;-66
2021/06/17 04:23:29;;;;;;;32.00;10.10;;;24.60;54.40;;;;;;6235085;28;80587;-67
2021/06/17 04:26:29;;;;;;;14.38;9.20;;;24.60;54.50;;;;;;6232476;27;83233;-66
2021/06/17 04:29:33;;;;;;;13.70;9.30;;;24.60;54.50;;;;;;6234412;28;84620;-65
2021/06/17 04:32:33;;;;;;;15.50;9.73;;;24.60;54.20;;;;;;6233526;28;80508;-66
2021/06/17 04:35:34;;;;;;;14.77;9.98;;;24.60;54.30;;;;;;6232798;28;80918;-65
2021/06/17 04:38:34;;;;;;;12.93;9.93;;;24.60;54.00;;;;;;6222834;27;82903;-63
2021/06/17 04:41:35;;;;;;;17.75;9.80;;;24.60;55.20;;;;;;6234927;28;84103;-63
2021/06/17 04:44:35;;;;;;;17.77;9.63;;;24.70;54.70;;;;;;6233933;28;80593;-63
2021/06/17 04:47:37;;;;;;;16.58;9.55;;;24.70;54.10;;;;;;6229772;27;80356;-62
2021/06/17 04:50:38;;;;;;;19.92;9.80;;;24.60;55.30;;;;;;6239560;27;81494;-62
2021/06/17 04:53:39;;;;;;;16.20;10.40;;;24.70;54.80;;;;;;6233318;27;80529;-66
2021/06/17 04:56:39;;;;;;;13.52;9.50;;;24.70;55.40;;;;;;6225108;27;83381;-67
2021/06/17 04:59:40;;;;;;;21.77;10.15;;;24.70;54.90;;;;;;6234209;28;82999;-66
2021/06/17 05:02:40;;;;;;;13.88;9.90;;;24.70;55.30;;;;;;6229004;27;82897;-67
2021/06/17 05:05:41;;;;;;;18.75;11.00;;;24.70;55.60;;;;;;6230189;27;83622;-67
2021/06/17 05:12:01;;;;;;;14.25;10.20;;;24.80;55.60;;;;;;6228828;27;83160;-66
2021/06/17 05:15:02;;;;;;;16.75;9.80;;;24.80;55.70;;;;;;6228158;27;83254;-67
2021/06/17 05:18:02;;;;;;;16.13;10.95;;;24.80;55.70;;;;;;6234041;27;83415;-66
2021/06/17 05:21:03;;;;;;;16.20;10.73;;;24.80;55.90;;;;;;6230384;27;85127;-66
2021/06/17 05:24:03;;;;;;;17.05;10.95;;;24.90;55.80;;;;;;6229434;27;83381;-69
2021/06/17 05:27:04;;;;;;;17.83;10.38;;;24.90;56.10;;;;;;6230586;27;83313;-66
2021/06/17 05:30:04;;;;;;;14.32;10.10;;;24.80;55.80;;;;;;6230849;27;84626;-66
2021/06/17 05:33:05;;;;;;;14.18;10.13;;;24.90;55.80;;;;;;6229751;27;83462;-66
2021/06/17 05:36:05;;;;;;;16.85;10.77;;;24.90;56.00;;;;;;6228005;28;82908;-66
2021/06/17 05:39:06;;;;;;;22.95;10.52;;;24.90;56.10;;;;;;6229329;27;84495;-67
2021/06/17 05:42:06;;;;;;;16.25;10.30;;;24.90;55.70;;;;;;6228995;27;82944;-65
2021/06/17 05:45:07;;;;;;;13.13;10.85;;;24.90;55.70;;;;;;6228907;27;83305;-66
2021/06/17 05:48:07;;;;;;;13.93;10.05;;;25.00;55.70;;;;;;6229766;27;83780;-65
2021/06/17 05:51:08;;;;;;;13.68;10.32;;;24.90;55.60;;;;;;6230621;28;83246;-66
2021/06/17 05:54:08;;;;;;;14.52;10.15;;;24.90;55.60;;;;;;6227515;27;82747;-67
2021/06/17 05:57:12;;;;;;;15.73;10.65;;;25.00;55.80;;;;;;6227254;27;86127;-64
2021/06/17 06:00:13;;;;;;;14.40;10.60;;;24.90;55.50;;;;;;6221876;28;83257;-65
2021/06/17 06:03:13;;;;;;;19.15;9.95;;;25.00;55.60;;;;;;6230334;27;83307;-66
2021/06/17 06:06:14;;;;;;;13.63;9.77;;;25.00;55.40;;;;;;6234022;27;83084;-66
2021/06/17 06:09:14;;;;;;;15.20;10.43;;;25.00;55.60;;;;;;6233636;28;80553;-66
2021/06/17 06:12:15;;;;;;;21.00;9.68;;;25.00;55.60;;;;;;6224237;27;83608;-66
2021/06/17 06:15:15;;;;;;;15.05;10.20;;;25.00;55.50;;;;;;6227349;27;82752;-66
2021/06/17 06:18:16;;;;;;;16.48;9.90;;;25.00;55.30;;;;;;6226346;27;83151;-65
2021/06/17 06:21:17;;;;;;;16.80;10.65;;;25.00;55.40;;;;;;6234579;27;82919;-64
2021/06/17 06:24:18;;;;;;;15.20;9.90;;;25.00;55.40;;;;;;6224900;27;83727;-66
2021/06/17 06:27:18;;;;;;;21.35;11.23;;;25.00;55.60;;;;;;6229725;27;83136;-65
2021/06/17 06:30:19;;;;;;;17.45;11.13;;;25.00;55.90;;;;;;6229669;28;82895;-65
2021/06/17 06:33:19;;;;;;;17.50;10.18;;;25.10;56.50;;;;;;6230629;27;83728;-65
2021/06/17 06:36:20;;;;;;;16.67;10.88;;;25.00;56.70;;;;;;6224851;27;83275;-64
2021/06/17 06:39:20;;;;;;;14.93;9.70;;;25.10;56.50;;;;;;6234735;27;83023;-64
2021/06/17 06:42:21;;;;;;;20.10;9.90;;;25.10;56.30;;;;;;6233779;27;83215;-65
2021/06/17 06:45:21;;;;;;;17.85;10.77;;;25.00;56.10;;;;;;6232402;27;80354;-65
2021/06/17 06:48:22;;;;;;;20.55;11.25;;;25.00;56.60;;;;;;6222356;27;83129;-65
2021/06/17 06:51:22;;;;;;;21.25;10.93;;;25.00;56.60;;;;;;6233366;28;84153;-65
2021/06/17 06:54:23;;;;;;;17.67;11.45;;;25.00;56.60;;;;;;6231735;27;88733;-66
2021/06/17 06:57:23;;;;;;;14.75;10.43;;;25.00;57.10;;;;;;6230791;27;83470;-65
2021/06/17 07:00:24;;;;;;;18.33;10.50;;;25.10;56.90;;;;;;6226249;28;83261;-66
2021/06/17 07:03:24;;;;;;;18.35;10.75;;;25.10;57.00;;;;;;6226124;27;83318;-65
2021/06/17 07:06:25;;;;;;;21.92;12.13;;;25.10;57.30;;;;;;6227450;27;83792;-65
2021/06/17 07:09:25;;;;;;;23.75;11.52;;;25.10;58.90;;;;;;6223121;28;85453;-65
2021/06/17 07:12:26;;;;;;;20.10;11.98;;;25.10;60.10;;;;;;6220500;27;83005;-65
2021/06/17 07:15:26;;;;;;;17.50;11.88;;;25.10;59.90;;;;;;6226360;27;83588;-66
2021/06/17 07:18:27;;;;;;;21.33;12.50;;;25.20;60.70;;;;;;6226935;27;83797;-66
2021/06/17 07:21:27;;;;;;;20.42;12.40;;;25.20;61.70;;;;;;6229380;27;83479;-65
2021/06/17 07:24:28;;;;;;;21.13;12.45;;;25.20;64.50;;;;;;6228601;27;83056;-65
2021/06/17 07:27:28;;;;;;;18.65;11.02;;;25.20;60.90;;;;;;6227661;28;83769;-64
2021/06/17 07:30:29;;;;;;;18.77;11.13;;;25.20;60.00;;;;;;6232340;28;83261;-65
2021/06/17 07:33:29;;;;;;;19.77;11.63;;;25.30;60.00;;;;;;6229333;27;82956;-66
2021/06/17 07:36:30;;;;;;;174.30;65.07;;;25.30;59.90;;;;;;6227868;27;83409;-64
2021/06/17 07:39:30;;;;;;;300.02;109.63;;;25.30;59.30;;;;;;6237367;27;83217;-65
2021/06/17 07:42:31;;;;;;;307.05;121.70;;;25.30;59.80;;;;;;6224011;28;86535;-64
2021/06/17 07:45:32;;;;;;;437.08;159.00;;;25.40;59.60;;;;;;6221698;28;86250;-65
2021/06/17 07:48:32;;;;;;;490.30;192.80;;;25.40;59.00;;;;;;6228801;27;85526;-65
2021/06/17 07:51:33;;;;;;;541.05;225.15;;;25.40;58.80;;;;;;6225205;27;86200;-65
2021/06/17 07:54:33;;;;;;;469.42;181.07;;;25.40;59.00;;;;;;6229140;27;85776;-66
2021/06/17 07:57:34;;;;;;;439.98;162.85;;;25.40;58.70;;;;;;6228602;28;85957;-66
2021/06/17 08:00:34;;;;;;;375.42;147.90;;;25.40;58.50;;;;;;6226738;27;85615;-65
2021/06/17 08:03:35;;;;;;;344.75;132.95;;;25.40;58.30;;;;;;6229534;27;85550;-65
2021/06/17 08:06:35;;;;;;;303.55;118.45;;;25.40;58.20;;;;;;6241799;27;87469;-65
2021/06/17 08:09:36;;;;;;;272.98;105.90;;;25.40;58.00;;;;;;6235630;27;85856;-65
2021/06/17 08:12:36;;;;;;;258.27;99.53;;;25.30;57.90;;;;;;6229896;28;85645;-65
2021/06/17 08:15:37;;;;;;;196.27;82.55;;;25.40;58.00;;;;;;6230607;27;84283;-65
2021/06/17 08:18:37;;;;;;;204.13;82.82;;;25.30;57.80;;;;;;6230721;27;83162;-64
2021/06/17 08:21:38;;;;;;;188.27;75.65;;;25.30;57.60;;;;;;6234506;27;83333;-65
2021/06/17 08:24:44;;;;;;;166.63;68.13;;;25.30;57.70;;;;;;6229730;27;83311;-65
2021/06/17 08:27:44;;;;;;;136.55;57.58;;;25.30;57.40;;;;;;6222408;28;83498;-64
2021/06/17 08:30:45;;;;;;;115.13;45.28;;;25.30;57.10;;;;;;6225071;28;84373;-65
2021/06/17 08:33:45;;;;;;;92.10;38.15;;;25.30;56.80;;;;;;6216574;27;83951;-66
2021/06/17 08:36:46;;;;;;;81.07;35.78;;;25.30;56.10;;;;;;6228428;27;83478;-65
2021/06/17 08:39:46;;;;;;;75.85;33.53;;;25.40;55.60;;;;;;6231538;27;82869;-65
2021/06/17 08:42:47;;;;;;;66.88;29.63;;;25.40;55.90;;;;;;6225059;28;83768;-66
2021/06/17 08:45:47;;;;;;;50.97;22.60;;;25.40;55.70;;;;;;6227126;27;83407;-65
2021/06/17 08:48:48;;;;;;;42.95;19.42;;;25.50;55.30;;;;;;6234541;27;84755;-65
2021/06/17 08:51:48;;;;;;;33.25;17.42;;;25.40;54.70;;;;;;6230986;27;82904;-65
2021/06/17 08:54:49;;;;;;;36.10;18.73;;;25.40;54.90;;;;;;6229421;27;83487;-65
2021/06/17 08:57:50;;;;;;;37.72;16.80;;;25.40;54.80;;;;;;6230978;27;83478;-65
2021/06/17 09:00:50;;;;;;;33.88;16.13;;;25.50;54.80;;;;;;6230080;27;83204;-66
2021/06/17 09:03:52;;;;;;;28.42;13.20;;;25.50;55.10;;;;;;6230391;27;83771;-66
2021/06/17 09:06:52;;;;;;;27.08;12.05;;;25.50;54.50;;;;;;6228556;27;83087;-66
2021/06/17 09:09:53;;;;;;;28.98;12.65;;;25.50;53.50;;;;;;6226367;27;86745;-66
2021/06/17 09:12:53;;;;;;;24.17;13.55;;;25.50;54.40;;;;;;6233731;27;82971;-66
2021/06/17 09:15:55;;;;;;;26.38;13.05;;;25.50;54.20;;;;;;6241787;28;85908;-65
2021/06/17 09:18:55;;;;;;;19.27;10.93;;;25.50;54.40;;;;;;6238006;27;82690;-65
2021/06/17 09:21:56;;;;;;;28.75;12.38;;;25.50;54.90;;;;;;6235067;27;83206;-65
2021/06/17 09:24:56;;;;;;;24.98;11.48;;;25.50;54.80;;;;;;6229612;27;83074;-65
2021/06/17 09:27:57;;;;;;;23.10;11.85;;;25.50;55.30;;;;;;6230638;27;83555;-66
2021/06/17 09:30:57;;;;;;;20.83;11.80;;;25.50;58.10;;;;;;6231089;27;84007;-64
2021/06/17 09:33:58;;;;;;;21.95;12.63;;;25.50;58.10;;;;;;6229812;27;86120;-63
2021/06/17 09:36:58;;;;;;;21.35;12.45;;;25.50;59.50;;;;;;6238112;27;83059;-64
2021/06/17 09:39:59;;;;;;;21.40;12.32;;;25.50;60.40;;;;;;6234528;27;85907;-64
2021/06/17 09:42:59;;;;;;;18.98;10.98;;;25.50;61.60;;;;;;6232642;28;82962;-64
2021/06/17 09:46:00;;;;;;;22.25;10.73;;;25.50;60.30;;;;;;6232476;27;83630;-65
2021/06/17 09:49:00;;;;;;;19.83;9.88;;;25.50;58.70;;;;;;6230211;27;84082;-66
2021/06/17 09:52:01;;;;;;;19.40;9.57;;;25.50;58.90;;;;;;6232467;28;83345;-64
2021/06/17 09:55:01;;;;;;;16.30;8.82;;;25.60;59.00;;;;;;6233893;27;81146;-66
2021/06/17 09:58:02;;;;;;;17.27;8.75;;;25.60;58.90;;;;;;6234539;27;80883;-66
2021/06/17 10:01:03;;;;;;;16.65;8.77;;;25.60;58.70;;;;;;6233370;27;80457;-66
2021/06/17 10:04:03;;;;;;;14.48;8.35;;;25.60;58.50;;;;;;6228150;27;81181;-66
2021/06/17 10:07:04;;;;;;;13.35;8.52;;;25.60;58.60;;;;;;6232114;27;81796;-66
2021/06/17 10:10:05;;;;;;;19.55;8.50;;;25.60;58.50;;;;;;6229307;27;80757;-67
2021/06/17 10:13:05;;;;;;;11.75;7.10;;;25.60;58.10;;;;;;6231651;27;81670;-66
2021/06/17 10:16:06;;;;;;;11.65;7.38;;;25.60;58.30;;;;;;6201318;27;80809;-65
2021/06/17 10:19:06;;;;;;;14.95;7.38;;;25.60;58.20;;;;;;6236076;28;86050;-66
2021/06/17 10:22:07;;;;;;;11.32;7.18;;;25.60;58.10;;;;;;6234679;27;80555;-64
2021/06/17 10:25:07;;;;;;;12.40;6.97;;;25.60;58.20;;;;;;6233834;27;80656;-65
2021/06/17 10:28:08;;;;;;;13.60;7.22;;;25.60;58.10;;;;;;6241039;27;82997;-65
2021/06/17 10:31:08;;;;;;;11.90;6.57;;;25.60;58.00;;;;;;6235314;27;80217;-66
2021/06/17 10:34:09;;;;;;;14.48;7.47;;;25.60;57.80;;;;;;6232096;27;82185;-65
2021/06/17 10:37:10;;;;;;;11.18;7.50;;;25.60;57.30;;;;;;6232480;27;80609;-66
2021/06/17 10:40:10;;;;;;;11.85;6.97;;;25.70;57.20;;;;;;6230707;27;84691;-67
2021/06/17 10:43:11;;;;;;;10.35;6.18;;;25.70;55.90;;;;;;6232024;27;80926;-65
2021/06/17 10:46:14;;;;;;;10.73;6.38;;;25.70;53.90;;;;;;6230541;27;80315;-65
2021/06/17 10:49:15;;;;;;;9.82;6.57;;;25.70;54.40;;;;;;6232136;27;81016;-68
2021/06/17 10:52:15;;;;;;;11.85;7.28;;;25.80;53.70;;;;;;6227106;27;83417;-66
2021/06/17 10:55:17;;;;;;;9.38;6.25;;;25.80;52.30;;;;;;6238950;27;81006;-66
2021/06/17 10:58:18;;;;;;;9.75;5.93;;;25.90;52.60;;;;;;6225313;27;80859;-68
2021/06/17 11:01:18;;;;;;;7.28;6.18;;;25.90;51.90;;;;;;6226345;27;81189;-68
2021/06/17 11:04:19;;;;;;;9.90;6.15;;;25.90;51.70;;;;;;6233908;27;80741;-68
2021/06/17 11:07:20;;;;;;;8.27;6.25;;;26.00;48.70;;;;;;6237945;27;81186;-68
2021/06/17 11:10:21;;;;;;;8.88;5.80;;;26.10;49.00;;;;;;6236516;27;81010;-69
2021/06/17 11:13:21;;;;;;;7.93;5.10;;;26.20;47.90;;;;;;6236935;27;80669;-68
2021/06/17 11:16:22;;;;;;;9.60;5.85;;;26.30;47.30;;;;;;6231886;27;81617;-66
2021/06/17 11:19:22;;;;;;;12.68;6.00;;;26.20;48.70;;;;;;6232065;27;80683;-68
2021/06/17 11:22:23;;;;;;;11.60;6.20;;;26.20;48.50;;;;;;6230748;27;80138;-68
2021/06/17 11:25:23;;;;;;;7.43;5.35;;;26.20;48.80;;;;;;6230367;27;81443;-68
2021/06/17 11:28:24;;;;;;;10.40;6.18;;;26.30;48.80;;;;;;6234159;27;80667;-67
2021/06/17 11:31:24;;;;;;;12.65;6.38;;;26.20;48.90;;;;;;6231851;27;84437;-68
2021/06/17 11:34:25;;;;;;;10.10;5.72;;;26.20;49.00;;;;;;6230736;27;80440;-66
2021/06/17 11:37:25;;;;;;;8.55;5.93;;;26.40;47.00;;;;;;6228460;27;80879;-67
2021/06/17 11:40:26;;;;;;;9.95;5.95;;;26.40;47.40;;;;;;6231755;27;83374;-67
2021/06/17 11:43:26;;;;;;;12.50;6.45;;;26.40;48.10;;;;;;6228189;27;81982;-64
2021/06/17 11:46:27;;;;;;;12.88;6.45;;;26.40;48.30;;;;;;6233368;27;80659;-67
2021/06/17 11:49:28;;;;;;;12.15;6.68;;;26.50;47.70;;;;;;6233800;28;80378;-68
2021/06/17 11:52:28;;;;;;;10.60;6.45;;;26.60;47.80;;;;;;6233185;27;80803;-68
2021/06/17 11:55:28;;;;;;;11.40;6.80;;;26.60;48.60;;;;;;6234594;27;80791;-67
2021/06/17 11:58:31;;;;;;;12.48;6.50;;;26.70;49.40;;;;;;6234324;27;80650;-67
2021/06/17 12:01:37;;;;;;;11.02;6.72;;;26.70;49.10;;;;;;6229582;27;80470;-67
2021/06/17 12:04:38;;;;;;;11.23;6.43;;;26.60;49.10;;;;;;6234230;27;80310;-67
2021/06/17 12:07:38;;;;;;;7.05;5.97;;;26.50;49.60;;;;;;6228695;27;82929;-68
2021/06/17 12:10:41;;;;;;;7.35;5.57;;;26.40;50.30;;;;;;6231593;27;82090;-69
2021/06/17 12:13:42;;;;;;;9.73;6.45;;;26.40;51.60;;;;;;6232700;27;80827;-67
2021/06/17 12:16:42;;;;;;;6.63;5.70;;;26.40;51.40;;;;;;6228225;27;80877;-68
2021/06/17 12:19:43;;;;;;;10.13;6.95;;;26.40;51.20;;;;;;6234069;27;81486;-68
2021/06/17 12:22:43;;;;;;;9.30;6.97;;;26.40;50.90;;;;;;6233350;27;80490;-68
2021/06/17 12:25:44;;;;;;;11.10;6.78;;;26.40;50.30;;;;;;6227692;27;81138;-67
2021/06/17 12:28:44;;;;;;;9.75;6.93;;;26.40;49.90;;;;;;6228739;27;81527;-66
2021/06/17 12:31:44;;;;;;;8.60;7.07;;;26.40;50.30;;;;;;6230921;27;82072;-68
2021/06/17 12:34:46;;;;;;;11.15;7.35;;;26.40;50.60;;;;;;6229343;27;80675;-68
2021/06/17 12:37:47;;;;;;;10.27;6.97;;;26.40;50.40;;;;;;6225756;28;81705;-67
2021/06/17 12:40:47;;;;;;;9.80;6.35;;;26.40;50.70;;;;;;6228600;27;81182;-67
2021/06/17 12:43:48;;;;;;;16.25;7.80;;;26.40;51.30;;;;;;6233502;27;81563;-68
2021/06/17 12:46:48;;;;;;;9.35;6.22;;;26.40;51.40;;;;;;6227557;27;80928;-68
2021/06/17 12:53:08;;;;;;;12.73;7.25;;;26.30;51.50;;;;;;6210882;27;81190;-68
2021/06/17 12:56:08;;;;;;;12.63;5.97;;;26.30;51.60;;;;;;6237465;27;80155;-68
2021/06/17 12:59:09;;;;;;;13.60;6.85;;;26.30;51.70;;;;;;6230690;27;82441;-68
2021/06/17 13:02:09;;;;;;;10.18;6.32;;;26.30;51.80;;;;;;6225828;27;82460;-68
2021/06/17 13:05:10;;;;;;;11.55;6.47;;;26.20;51.90;;;;;;6229750;27;82518;-68
2021/06/17 13:08:11;;;;;;;8.68;6.07;;;26.20;51.90;;;;;;6231847;27;80694;-68
2021/06/17 13:11:11;;;;;;;7.90;5.65;;;26.20;52.20;;;;;;6228403;27;81467;-67
2021/06/17 13:14:12;;;;;;;10.32;6.38;;;26.30;52.00;;;;;;6229242;27;81847;-67
2021/06/17 13:17:12;;;;;;;11.32;6.28;;;26.30;52.00;;;;;;6228258;27;80880;-67
2021/06/17 13:20:13;;;;;;;9.38;6.75;;;26.20;52.10;;;;;;6230257;27;83625;-68
2021/06/17 13:23:19;;;;;;;11.27;6.22;;;26.20;52.20;;;;;;6230550;27;80461;-67
2021/06/17 13:26:19;;;;;;;;;;;26.20;52.00;;;;;;6228536;27;80233;-67
2021/06/17 13:29:20;;;;;;;9.93;6.25;;;26.30;52.00;;;;;;6242806;28;80382;-66
2021/06/17 13:32:20;;;;;;;9.23;6.38;;;26.20;51.90;;;;;;6233200;27;84438;-68
2021/06/17 13:35:21;;;;;;;10.73;6.45;;;26.20;52.20;;;;;;6234085;27;81484;-68
2021/06/17 13:38:22;;;;;;;8.93;6.85;;;26.30;52.10;;;;;;6232771;27;80431;-70
2021/06/17 13:41:22;;;;;;;10.30;7.20;;;26.30;52.10;;;;;;6240979;27;80438;-70
2021/06/17 13:44:23;;;;;;;16.13;7.55;;;26.20;53.30;;;;;;6227555;27;80455;-71
2021/06/17 13:47:24;;;;;;;9.85;6.97;;;26.20;52.90;;;;;;6223737;27;81480;-69
2021/06/17 13:50:25;;;;;;;10.65;8.23;;;26.20;52.90;;;;;;6230116;27;81969;-69
2021/06/17 13:53:25;;;;;;;9.57;7.38;;;26.30;53.00;;;;;;6231561;27;81123;-70
2021/06/17 13:56:26;;;;;;;10.27;7.15;;;26.30;52.60;;;;;;6221682;28;83436;-71
2021/06/17 13:59:26;;;;;;;11.57;7.70;;;26.30;52.60;;;;;;6233116;27;81493;-70
2021/06/17 14:02:27;;;;;;;9.80;7.05;;;26.30;52.60;;;;;;6240411;27;80260;-69
2021/06/17 14:05:27;;;;;;;10.00;7.60;;;26.30;52.00;;;;;;6224452;27;81103;-69
2021/06/17 14:08:28;;;;;;;9.85;7.07;;;26.30;51.80;;;;;;6231264;27;80777;-69
2021/06/17 14:11:28;;;;;;;10.32;7.28;;;26.30;51.70;;;;;;6231158;27;81175;-68
2021/06/17 14:14:29;;;;;;;10.95;6.60;;;26.30;52.10;;;;;;6232733;27;80618;-66
2021/06/17 14:17:29;;;;;;;13.65;7.45;;;26.30;52.40;;;;;;6228561;27;80971;-68
2021/06/17 14:20:30;;;;;;;8.35;6.38;;;26.30;52.50;;;;;;6230714;27;81121;-67
2021/06/17 14:23:31;;;;;;;7.30;6.13;;;26.30;52.60;;;;;;6231679;27;81685;-67
2021/06/17 14:26:31;;;;;;;9.50;6.43;;;26.30;52.60;;;;;;6231805;27;80929;-68
2021/06/17 14:29:32;;;;;;;12.50;6.80;;;26.30;52.50;;;;;;6231148;27;80346;-67
2021/06/17 14:32:32;;;;;;;10.43;6.32;;;26.30;52.50;;;;;;6233020;27;81278;-66
2021/06/17 14:35:33;;;;;;;8.10;6.10;;;26.30;52.30;;;;;;6230260;27;80389;-67
2021/06/17 14:38:36;;;;;;;6.82;5.28;;;26.30;52.30;;;;;;6241140;27;80261;-67
2021/06/17 14:41:37;;;;;;;8.38;6.00;;;26.30;52.00;;;;;;6219040;27;81761;-67
2021/06/17 14:44:37;;;;;;;8.77;5.95;;;26.20;52.40;;;;;;6238189;27;81737;-66
2021/06/17 14:47:38;;;;;;;10.75;5.70;;;26.10;51.90;;;;;;6229613;27;80378;-67
2021/06/17 14:50:38;;;;;;;8.02;5.60;;;26.10;52.20;;;;;;6233154;27;81255;-65
2021/06/17 14:53:39;;;;;;;9.15;6.03;;;26.10;52.10;;;;;;6226878;27;81415;-66
2021/06/17 14:56:39;;;;;;;6.88;5.82;;;26.10;52.40;;;;;;6238262;28;80453;-67
2021/06/17 14:59:40;;;;;;;57.20;25.35;;;26.10;52.70;;;;;;6232243;27;81548;-66
2021/06/17 15:02:41;;;;;;;127.63;48.58;;;26.10;52.40;;;;;;6225424;27;83489;-66
2021/06/17 15:05:41;;;;;;;150.30;61.50;;;26.00;52.60;;;;;;6211231;27;84729;-67
2021/06/17 15:08:42;;;;;;;181.85;75.10;;;26.10;52.40;;;;;;6230506;27;83096;-67
2021/06/17 15:11:42;;;;;;;218.15;81.80;;;26.10;52.40;;;;;;6222744;27;83099;-67
2021/06/17 15:14:43;;;;;;;254.52;106.25;;;26.10;52.10;;;;;;6226904;27;84421;-67
2021/06/17 15:17:43;;;;;;;283.02;115.78;;;26.10;52.10;;;;;;6225622;28;85364;-68
2021/06/17 15:20:44;;;;;;;245.07;101.05;;;26.10;52.10;;;;;;6224589;27;86404;-67
2021/06/17 15:23:44;;;;;;;206.80;85.03;;;26.10;51.90;;;;;;6224840;27;86342;-67
2021/06/17 15:26:45;;;;;;;175.82;65.97;;;26.10;52.00;;;;;;6227979;27;85769;-67
2021/06/17 15:29:45;;;;;;;126.85;52.17;;;26.10;51.40;;;;;;6228981;27;83978;-68